Terminal Aerodrome Forecast
Issued by NWS

Home | Current Version | Previous Version | Graphics & Text | Print | Product List | Glossary On
Versions: 1 2 3 4 5 6 7 8 9 10 11 12 13 14
979
FTUS43 KBIS 261741
TAFDIK
TAF
KDIK 261741Z 2618/2718 02013KT P6SM FEW250
     FM262300 05010KT P6SM FEW250
     FM270500 08007KT P6SM FEW250
     FM271300 07006KT P6SM SCT025
     FM271700 07008KT P6SM SCT250=

USA.gov is the U.S. government's official web portal to all federal, state and local government web resources and services.